Time;durP1;ratioP1;P1;durP2;ratioP2;P2;SDS_P1;SDS_P2;PMS_P1;PMS_P2;Temp;Humidity;BMP_temperature;BMP_pressure;BME280_temperature;BME280_humidity;BME280_pressure;Samples;Min_cycle;Max_cycle;Signal;HPM_P1;HPM_P2
2022/09/27 00:01:09;;;;;;;16.13;5.70;;;9.80;99.90;;;;;;5032283;28;20210;-52
2022/09/27 00:03:37;;;;;;;12.93;6.40;;;9.80;99.90;;;;;;5032281;28;20217;-56
2022/09/27 00:06:07;;;;;;;11.67;6.00;;;9.80;99.90;;;;;;5032049;28;20206;-57
2022/09/27 00:08:35;;;;;;;11.50;5.23;;;9.80;99.90;;;;;;5032071;28;20202;-59
2022/09/27 00:11:03;;;;;;;11.93;4.90;;;9.70;99.90;;;;;;5031625;28;20293;-59
2022/09/27 00:13:30;;;;;;;8.70;4.30;;;9.70;99.90;;;;;;5032189;28;20644;-58
2022/09/27 00:15:57;;;;;;;9.30;4.83;;;9.70;99.90;;;;;;5031820;28;20205;-58
2022/09/27 00:18:24;;;;;;;11.33;4.60;;;9.70;99.90;;;;;;5031926;28;20307;-59
2022/09/27 00:20:52;;;;;;;8.33;4.10;;;9.70;99.90;;;;;;5031538;28;20252;-57
2022/09/27 00:23:19;;;;;;;11.60;4.17;;;9.70;99.90;;;;;;5032128;28;20256;-57
2022/09/27 00:25:55;;;;;;;8.30;3.70;;;9.70;99.90;;;;;;5031804;28;20211;-57
2022/09/27 00:28:22;;;;;;;7.40;3.27;;;9.70;99.90;;;;;;5031900;28;20650;-57
2022/09/27 00:30:49;;;;;;;6.00;2.70;;;9.70;99.90;;;;;;5031637;28;20732;-52
2022/09/27 00:33:15;;;;;;;10.73;2.70;;;9.60;99.90;;;;;;5031625;28;20572;-59
2022/09/27 00:35:42;;;;;;;6.20;2.80;;;9.60;99.90;;;;;;5031812;28;20210;-56
2022/09/27 00:38:10;;;;;;;6.63;3.30;;;9.70;99.90;;;;;;5031656;28;20226;-59
2022/09/27 00:40:37;;;;;;;11.27;3.07;;;9.60;99.90;;;;;;5031790;28;20260;-59
2022/09/27 00:43:14;;;;;;;9.57;3.53;;;9.60;99.90;;;;;;5031837;28;20269;-57
2022/09/27 00:45:41;;;;;;;15.13;4.20;;;9.70;99.90;;;;;;5031673;28;20221;-59
2022/09/27 00:48:10;;;;;;;9.20;4.63;;;9.70;99.90;;;;;;5031577;28;20261;-58
2022/09/27 00:50:39;;;;;;;10.40;4.63;;;9.80;99.90;;;;;;5031758;28;20674;-57
2022/09/27 00:53:15;;;;;;;14.03;5.80;;;9.70;99.90;;;;;;5031699;28;20213;-59
2022/09/27 00:55:46;;;;;;;11.43;5.17;;;9.80;99.90;;;;;;5031671;28;20344;-59
2022/09/27 00:58:15;;;;;;;10.63;4.97;;;9.70;99.90;;;;;;5031440;28;20230;-58
2022/09/27 01:00:45;;;;;;;11.13;5.10;;;9.70;99.90;;;;;;5031712;28;20206;-59
2022/09/27 01:03:21;;;;;;;12.07;4.90;;;9.70;99.90;;;;;;5031933;28;20267;-57
2022/09/27 01:05:49;;;;;;;9.43;3.47;;;9.70;99.90;;;;;;5031593;28;20206;-57
2022/09/27 01:08:17;;;;;;;8.00;4.33;;;9.70;99.90;;;;;;5031131;28;20670;-59
2022/09/27 01:10:54;;;;;;;7.53;4.27;;;9.70;99.90;;;;;;5031360;28;20267;-57
2022/09/27 01:13:27;;;;;;;9.83;5.07;;;9.70;99.90;;;;;;5031656;28;20209;-57
2022/09/27 01:16:00;;;;;;;9.43;5.20;;;9.70;99.90;;;;;;5031293;28;20214;-59
2022/09/27 01:18:38;;;;;;;10.67;5.97;;;9.60;99.90;;;;;;5031359;28;20231;-56
2022/09/27 01:21:41;;;;;;;17.77;7.57;;;9.60;99.90;;;;;;5031276;28;20214;-57
2022/09/27 01:24:36;;;;;;;12.87;7.00;;;9.50;99.90;;;;;;5035420;28;20734;-57
2022/09/27 01:27:27;;;;;;;15.80;6.73;;;9.50;99.90;;;;;;5034817;28;20575;-58
2022/09/27 01:30:14;;;;;;;15.37;8.60;;;9.50;99.90;;;;;;5035320;28;20203;-57
2022/09/27 01:32:49;;;;;;;17.67;8.80;;;9.50;99.90;;;;;;5035167;28;20202;-58
2022/09/27 01:35:25;;;;;;;20.43;9.50;;;9.50;99.90;;;;;;5034862;28;20233;-58
2022/09/27 01:38:00;;;;;;;20.60;11.13;;;9.60;99.90;;;;;;5034393;28;20272;-55
2022/09/27 01:40:34;;;;;;;23.40;11.17;;;9.50;99.90;;;;;;5034895;28;20364;-59
2022/09/27 01:43:10;;;;;;;23.97;12.13;;;9.50;99.90;;;;;;5034875;28;20734;-59
2022/09/27 01:45:40;;;;;;;22.97;13.53;;;9.60;99.90;;;;;;5034188;28;20797;-56
2022/09/27 01:48:10;;;;;;;24.17;13.83;;;9.50;99.90;;;;;;5034541;28;20233;-57
2022/09/27 01:50:41;;;;;;;25.60;15.10;;;9.50;99.90;;;;;;5034690;28;20210;-59
2022/09/27 01:53:12;;;;;;;32.13;15.03;;;9.50;99.90;;;;;;5034809;28;20206;-58
2022/09/27 01:55:39;;;;;;;28.53;15.27;;;9.50;99.90;;;;;;5034500;28;20276;-58
2022/09/27 01:58:10;;;;;;;27.87;16.70;;;9.60;99.90;;;;;;5034357;28;20230;-56
2022/09/27 02:00:40;;;;;;;35.83;16.90;;;9.60;99.90;;;;;;5034420;28;20256;-58
2022/09/27 02:03:11;;;;;;;32.90;17.70;;;9.60;99.90;;;;;;5034420;28;20252;-57
2022/09/27 02:05:44;;;;;;;31.10;18.23;;;9.60;99.90;;;;;;5034427;28;20329;-59
2022/09/27 02:08:17;;;;;;;29.97;16.27;;;9.60;99.90;;;;;;5034093;28;20257;-57
2022/09/27 02:10:45;;;;;;;35.07;17.73;;;9.50;99.90;;;;;;5034265;28;20211;-58
2022/09/27 02:13:19;;;;;;;29.20;16.73;;;9.60;99.90;;;;;;5034194;28;20211;-58
2022/09/27 02:15:56;;;;;;;31.10;16.37;;;9.60;99.90;;;;;;5034191;28;20222;-59
2022/09/27 02:18:28;;;;;;;34.20;16.03;;;9.60;99.90;;;;;;5033986;28;20237;-56
2022/09/27 02:20:58;;;;;;;39.93;17.73;;;9.60;99.90;;;;;;5034110;28;20241;-57
2022/09/27 02:23:33;;;;;;;33.03;16.93;;;9.50;99.90;;;;;;5034029;28;20214;-59
2022/09/27 02:26:03;;;;;;;26.67;14.00;;;9.50;99.90;;;;;;5033870;28;20588;-58
2022/09/27 02:28:37;;;;;;;27.80;14.03;;;9.50;99.90;;;;;;5033937;28;20226;-59
2022/09/27 02:31:05;;;;;;;23.90;14.27;;;9.50;99.90;;;;;;5033971;28;20669;-58
2022/09/27 02:33:38;;;;;;;23.60;12.77;;;9.50;99.90;;;;;;5033565;28;20245;-59
2022/09/27 02:36:05;;;;;;;27.23;13.27;;;9.40;99.90;;;;;;5033840;28;20268;-59
2022/09/27 02:38:33;;;;;;;20.43;9.90;;;9.50;99.90;;;;;;5033919;28;20210;-59
2022/09/27 02:40:59;;;;;;;17.37;11.00;;;9.40;99.90;;;;;;5034168;28;20272;-58
2022/09/27 02:43:29;;;;;;;20.93;10.27;;;9.40;99.90;;;;;;5034134;28;20226;-58
2022/09/27 02:46:25;;;;;;;21.53;10.33;;;9.40;99.90;;;;;;5033598;28;20211;-59
2022/09/27 02:49:03;;;;;;;15.93;8.93;;;9.30;99.90;;;;;;5033559;28;20668;-57
2022/09/27 02:51:41;;;;;;;20.73;8.70;;;9.30;99.90;;;;;;5033400;28;20671;-57
2022/09/27 02:54:18;;;;;;;14.83;8.03;;;9.30;99.90;;;;;;5033497;28;20229;-59
2022/09/27 02:56:54;;;;;;;13.17;7.83;;;9.20;99.90;;;;;;5032866;28;20719;-57
2022/09/27 02:59:32;;;;;;;18.57;8.63;;;9.30;99.90;;;;;;5033390;28;20209;-58
2022/09/27 03:02:08;;;;;;;16.67;7.90;;;9.30;99.90;;;;;;5033307;28;20216;-59
2022/09/27 03:04:39;;;;;;;14.37;7.43;;;9.20;99.90;;;;;;5033348;28;20202;-59
2022/09/27 03:07:06;;;;;;;19.40;7.17;;;9.30;99.90;;;;;;5033091;28;20260;-57
2022/09/27 03:09:43;;;;;;;16.57;7.80;;;9.30;99.90;;;;;;5033352;28;20209;-56
2022/09/27 03:12:09;;;;;;;15.73;7.13;;;9.30;99.90;;;;;;5033404;28;20289;-57
2022/09/27 03:14:36;;;;;;;11.33;6.80;;;9.30;99.90;;;;;;5033333;28;20221;-55
2022/09/27 03:17:04;;;;;;;16.60;7.43;;;9.30;99.90;;;;;;5032816;28;20288;-57
2022/09/27 03:19:31;;;;;;;17.30;6.83;;;9.30;99.90;;;;;;5033119;28;20213;-56
2022/09/27 03:21:57;;;;;;;16.43;7.07;;;9.40;99.90;;;;;;5032663;28;20207;-57
2022/09/27 03:24:24;;;;;;;11.40;7.03;;;9.30;99.90;;;;;;5033123;28;20209;-57
2022/09/27 03:26:51;;;;;;;12.00;6.53;;;9.30;99.90;;;;;;5032562;28;20233;-58
2022/09/27 03:29:17;;;;;;;8.13;6.00;;;9.30;99.90;;;;;;5032986;28;20202;-59
2022/09/27 03:31:44;;;;;;;14.23;6.50;;;9.20;99.90;;;;;;5032646;28;20271;-57
2022/09/27 03:34:12;;;;;;;15.33;6.87;;;9.10;99.90;;;;;;5032635;28;20639;-57
2022/09/27 03:36:39;;;;;;;13.27;7.50;;;9.10;99.90;;;;;;5032197;28;20317;-58
2022/09/27 03:39:05;;;;;;;15.23;7.63;;;9.10;99.90;;;;;;5032680;28;20202;-59
2022/09/27 03:41:32;;;;;;;13.83;7.57;;;9.10;99.90;;;;;;5032389;28;20264;-58
2022/09/27 03:43:59;;;;;;;17.33;7.93;;;9.10;99.90;;;;;;5032109;28;20260;-57
2022/09/27 03:46:26;;;;;;;19.63;8.40;;;9.00;99.90;;;;;;5031726;28;20214;-59
2022/09/27 03:48:52;;;;;;;15.77;8.40;;;8.90;99.90;;;;;;5032233;28;20623;-59
2022/09/27 03:51:20;;;;;;;17.33;7.47;;;9.00;99.90;;;;;;5032251;28;20754;-59
2022/09/27 03:53:48;;;;;;;12.77;7.00;;;9.00;99.90;;;;;;5032526;28;20263;-51
2022/09/27 03:56:15;;;;;;;13.07;5.47;;;9.00;99.90;;;;;;5031965;28;20233;-54
2022/09/27 03:58:42;;;;;;;11.33;5.70;;;8.90;99.90;;;;;;5032330;28;20213;-57
2022/09/27 04:01:08;;;;;;;11.37;6.10;;;8.90;99.90;;;;;;5032243;28;20239;-54
2022/09/27 04:03:35;;;;;;;11.60;6.90;;;8.90;99.90;;;;;;5032162;28;20638;-55
2022/09/27 04:06:02;;;;;;;21.30;7.40;;;8.90;99.90;;;;;;5031727;28;20224;-59
2022/09/27 04:08:30;;;;;;;16.37;8.43;;;8.90;99.90;;;;;;5031975;28;20236;-55
2022/09/27 04:10:57;;;;;;;19.10;8.90;;;9.00;99.90;;;;;;5032095;28;20215;-57
2022/09/27 04:13:24;;;;;;;16.83;9.53;;;9.00;99.90;;;;;;5032122;28;20264;-56
2022/09/27 04:15:51;;;;;;;21.90;9.83;;;9.10;99.90;;;;;;5031730;28;20723;-56
2022/09/27 04:18:17;;;;;;;20.27;10.97;;;9.10;99.90;;;;;;5031930;28;20226;-58
2022/09/27 04:20:44;;;;;;;20.57;12.27;;;9.10;99.90;;;;;;5032017;28;20213;-59
2022/09/27 04:23:11;;;;;;;23.87;12.43;;;9.10;99.90;;;;;;5032126;28;20279;-57
2022/09/27 04:25:39;;;;;;;28.53;12.87;;;9.10;99.90;;;;;;5031647;28;20202;-59
2022/09/27 04:28:06;;;;;;;18.67;11.37;;;9.10;99.90;;;;;;5031665;28;20351;-56
2022/09/27 04:30:32;;;;;;;20.97;12.53;;;9.10;99.90;;;;;;5031705;28;20320;-54
2022/09/27 04:32:59;;;;;;;23.67;12.77;;;9.10;99.90;;;;;;5031732;28;20213;-57
2022/09/27 04:38:10;;;;;;;19.20;11.80;;;9.20;99.90;;;;;;5031470;28;20227;-58
2022/09/27 04:40:37;;;;;;;24.70;12.50;;;9.20;99.90;;;;;;5031756;28;20889;-58
2022/09/27 04:43:05;;;;;;;19.73;11.27;;;9.20;99.90;;;;;;5031692;28;20264;-58
2022/09/27 04:45:31;;;;;;;21.47;12.17;;;9.20;99.90;;;;;;5031341;28;20213;-59
2022/09/27 04:47:58;;;;;;;22.80;11.83;;;9.10;99.90;;;;;;5031266;28;20783;-59
2022/09/27 04:50:25;;;;;;;24.13;10.60;;;9.10;99.90;;;;;;5032060;28;20264;-57
2022/09/27 04:52:52;;;;;;;23.47;10.83;;;9.10;99.90;;;;;;5031648;28;20206;-53
2022/09/27 04:55:20;;;;;;;20.73;10.77;;;9.10;99.90;;;;;;5031672;28;20228;-57
2022/09/27 04:57:46;;;;;;;24.40;11.33;;;9.10;99.90;;;;;;5034985;28;20611;-56
2022/09/27 05:00:16;;;;;;;21.93;11.27;;;9.10;99.90;;;;;;5035772;28;20213;-59
2022/09/27 05:02:42;;;;;;;19.33;10.70;;;9.00;99.90;;;;;;5035871;28;20206;-59
2022/09/27 05:05:09;;;;;;;19.07;10.23;;;9.00;99.90;;;;;;5035209;28;20267;-59
2022/09/27 05:07:37;;;;;;;18.97;11.13;;;9.00;99.90;;;;;;5034940;28;20276;-59
2022/09/27 05:10:05;;;;;;;18.33;9.83;;;9.10;99.90;;;;;;5035185;28;20218;-59
2022/09/27 05:12:32;;;;;;;24.73;11.33;;;9.10;99.90;;;;;;5035295;28;20587;-60
2022/09/27 05:14:59;;;;;;;17.60;10.23;;;9.00;99.90;;;;;;5035336;28;20226;-59
2022/09/27 05:17:27;;;;;;;24.83;11.07;;;8.90;99.90;;;;;;5035131;28;20239;-59
2022/09/27 05:19:54;;;;;;;24.80;10.73;;;8.90;99.90;;;;;;5035308;28;20599;-58
2022/09/27 05:22:20;;;;;;;22.80;10.77;;;8.90;99.90;;;;;;5035235;28;20213;-60
2022/09/27 05:24:47;;;;;;;23.70;9.97;;;8.90;99.90;;;;;;5035098;28;20205;-60
2022/09/27 05:27:17;;;;;;;21.40;10.50;;;8.90;99.90;;;;;;5034795;28;20233;-60
2022/09/27 05:29:44;;;;;;;22.87;9.80;;;8.90;99.90;;;;;;5035218;28;20218;-59
2022/09/27 05:32:10;;;;;;;17.30;9.57;;;8.90;99.90;;;;;;5035179;28;20206;-60
2022/09/27 05:34:38;;;;;;;18.77;9.13;;;8.90;99.90;;;;;;5034913;28;20206;-58
2022/09/27 05:37:05;;;;;;;19.53;9.10;;;8.90;99.90;;;;;;5034750;28;20225;-60
2022/09/27 05:39:32;;;;;;;21.17;10.47;;;8.90;99.90;;;;;;5034761;28;20209;-60
2022/09/27 05:41:58;;;;;;;16.23;9.67;;;8.90;99.90;;;;;;5034788;28;20582;-60
2022/09/27 05:44:25;;;;;;;18.50;9.00;;;8.80;99.90;;;;;;5034829;28;20569;-60
2022/09/27 05:46:52;;;;;;;19.50;9.67;;;8.80;99.90;;;;;;5034376;28;20225;-60
2022/09/27 05:49:19;;;;;;;13.80;9.50;;;8.80;99.90;;;;;;5034745;28;20255;-60
2022/09/27 05:51:47;;;;;;;16.07;9.53;;;8.80;99.90;;;;;;5034755;28;20217;-60
2022/09/27 05:54:13;;;;;;;17.87;10.27;;;8.80;99.90;;;;;;5034504;28;20216;-60
2022/09/27 05:56:40;;;;;;;23.13;10.47;;;8.80;99.90;;;;;;5034501;28;20236;-60
2022/09/27 05:59:07;;;;;;;21.20;10.60;;;8.80;99.90;;;;;;5034646;28;20209;-60
2022/09/27 06:01:34;;;;;;;19.67;10.20;;;8.80;99.90;;;;;;5034629;28;20220;-60
2022/09/27 06:04:02;;;;;;;18.07;10.03;;;8.90;99.90;;;;;;5034336;28;20208;-60
2022/09/27 06:06:28;;;;;;;12.83;8.50;;;8.80;99.90;;;;;;5034038;28;20275;-60
2022/09/27 06:08:56;;;;;;;17.80;9.10;;;8.80;99.90;;;;;;5033347;28;20688;-60
2022/09/27 06:11:24;;;;;;;17.83;8.43;;;8.80;99.90;;;;;;5034464;28;20642;-60
2022/09/27 06:13:50;;;;;;;14.53;7.80;;;8.70;99.90;;;;;;5034317;28;20213;-61
2022/09/27 06:16:17;;;;;;;14.87;7.40;;;8.80;99.90;;;;;;5033673;28;20585;-60
2022/09/27 06:18:44;;;;;;;14.50;7.43;;;8.80;99.90;;;;;;5034009;28;20214;-61
2022/09/27 06:21:12;;;;;;;14.40;7.87;;;8.80;99.90;;;;;;5033985;28;20265;-61
2022/09/27 06:23:38;;;;;;;11.17;6.70;;;8.90;99.90;;;;;;5034291;28;20213;-60
2022/09/27 06:26:07;;;;;;;12.80;7.80;;;8.90;99.90;;;;;;5033979;28;20202;-60
2022/09/27 06:28:34;;;;;;;11.43;6.83;;;8.90;99.90;;;;;;5034097;28;20217;-61
2022/09/27 06:31:01;;;;;;;11.77;6.10;;;9.00;99.90;;;;;;5033967;28;20212;-61
2022/09/27 06:33:28;;;;;;;13.77;7.10;;;9.00;99.90;;;;;;5033991;28;20206;-60
2022/09/27 06:35:54;;;;;;;11.70;6.53;;;9.10;99.90;;;;;;5033544;28;20225;-60
2022/09/27 06:38:21;;;;;;;15.03;5.93;;;9.00;99.90;;;;;;5033299;28;20225;-62
2022/09/27 06:40:48;;;;;;;14.90;5.77;;;9.00;99.90;;;;;;5033934;28;20293;-60
2022/09/27 06:43:18;;;;;;;9.87;5.23;;;9.00;99.90;;;;;;5033794;28;20213;-60
2022/09/27 06:45:45;;;;;;;10.60;4.83;;;9.00;99.90;;;;;;5033537;28;20220;-59
2022/09/27 06:48:14;;;;;;;6.50;4.67;;;8.90;99.90;;;;;;5033439;28;20646;-60
2022/09/27 06:50:43;;;;;;;9.70;4.73;;;9.00;99.90;;;;;;5033297;28;20209;-60
2022/09/27 06:53:11;;;;;;;6.00;3.90;;;9.00;99.90;;;;;;5033578;28;20797;-61
2022/09/27 06:55:38;;;;;;;9.33;4.27;;;8.90;99.90;;;;;;5033458;28;20257;-60
2022/09/27 07:00:52;;;;;;;11.87;3.53;;;8.90;99.90;;;;;;5033211;28;20286;-61
2022/09/27 07:03:21;;;;;;;6.97;3.13;;;8.90;99.90;;;;;;5033582;28;20212;-60
2022/09/27 07:05:56;;;;;;;8.27;3.30;;;9.00;99.90;;;;;;5033165;28;20213;-60
2022/09/27 07:08:23;;;;;;;6.03;3.27;;;8.90;99.90;;;;;;5033332;28;20323;-61
2022/09/27 07:10:50;;;;;;;7.83;2.60;;;8.90;99.90;;;;;;5032966;28;20240;-60
2022/09/27 07:13:17;;;;;;;5.53;2.67;;;8.90;99.90;;;;;;5032890;28;20206;-60
2022/09/27 07:15:43;;;;;;;5.60;2.80;;;8.90;99.90;;;;;;5032954;28;20233;-59
2022/09/27 07:18:11;;;;;;;6.70;2.97;;;8.90;99.90;;;;;;5033029;28;20317;-60
2022/09/27 07:20:38;;;;;;;6.83;2.70;;;9.00;99.90;;;;;;5033017;28;20276;-61
2022/09/27 07:23:06;;;;;;;5.73;2.63;;;9.00;99.90;;;;;;5032937;28;20295;-60
2022/09/27 07:25:33;;;;;;;5.73;2.83;;;9.00;99.90;;;;;;5032791;28;20260;-60
2022/09/27 07:28:02;;;;;;;4.30;2.63;;;8.90;99.90;;;;;;5032516;28;20234;-60
2022/09/27 07:30:29;;;;;;;5.03;2.60;;;9.00;99.90;;;;;;5032493;28;20213;-60
2022/09/27 07:32:58;;;;;;;6.50;2.63;;;9.00;99.90;;;;;;5032964;28;20212;-60
2022/09/27 07:35:26;;;;;;;7.57;2.70;;;9.10;99.90;;;;;;5032873;28;20596;-60
2022/09/27 07:37:55;;;;;;;8.93;3.00;;;9.10;99.90;;;;;;5032240;28;20230;-60
2022/09/27 07:40:21;;;;;;;4.53;3.07;;;9.10;99.90;;;;;;5032015;28;20263;-60
2022/09/27 07:42:49;;;;;;;5.43;3.10;;;9.20;99.90;;;;;;5032598;28;20743;-61
2022/09/27 07:45:16;;;;;;;4.87;3.33;;;9.20;99.90;;;;;;5032119;28;20258;-60
2022/09/27 07:47:42;;;;;;;6.70;2.90;;;9.20;99.90;;;;;;5032305;28;20230;-60
2022/09/27 07:50:10;;;;;;;4.80;3.40;;;9.20;99.90;;;;;;5032470;28;20211;-60
2022/09/27 07:52:41;;;;;;;7.50;3.37;;;9.30;99.90;;;;;;5032495;28;20206;-61
2022/09/27 07:55:10;;;;;;;7.83;4.20;;;9.30;99.90;;;;;;5032190;28;20760;-60
2022/09/27 07:57:37;;;;;;;11.27;3.70;;;9.40;99.90;;;;;;5032253;28;20222;-61
2022/09/27 08:00:05;;;;;;;8.17;4.00;;;9.40;99.90;;;;;;5032178;28;20739;-60
2022/09/27 08:02:32;;;;;;;6.57;4.10;;;9.50;99.90;;;;;;5032370;28;20635;-61
2022/09/27 08:04:59;;;;;;;7.90;4.20;;;9.50;99.90;;;;;;5032179;28;20202;-61
2022/09/27 08:07:26;;;;;;;18.40;6.47;;;9.60;99.90;;;;;;5031859;28;20284;-61
2022/09/27 08:09:54;;;;;;;15.83;6.23;;;9.70;99.90;;;;;;5032032;28;20275;-61
2022/09/27 08:12:21;;;;;;;6.30;2.70;;;9.70;99.90;;;;;;5031751;28;20695;-60
2022/09/27 08:14:48;;;;;;;9.10;3.60;;;9.70;99.90;;;;;;5032071;28;20210;-60
2022/09/27 08:17:16;;;;;;;7.13;2.93;;;9.70;99.90;;;;;;5031604;28;20284;-60
2022/09/27 08:19:43;;;;;;;5.47;2.43;;;9.70;99.90;;;;;;5032014;28;20213;-60
2022/09/27 08:22:10;;;;;;;3.10;2.00;;;9.80;99.90;;;;;;5031560;28;20214;-61
2022/09/27 08:24:37;;;;;;;2.80;1.87;;;9.70;99.90;;;;;;5032206;28;20214;-60
2022/09/27 08:27:07;;;;;;;3.43;1.93;;;9.50;99.90;;;;;;5031930;28;20222;-59
2022/09/27 08:29:34;;;;;;;5.30;2.40;;;9.40;99.90;;;;;;5032414;28;20206;-60
2022/09/27 08:32:01;;;;;;;6.30;3.53;;;9.40;99.90;;;;;;5032341;28;20260;-59
2022/09/27 08:34:28;;;;;;;5.93;2.87;;;9.40;99.90;;;;;;5032538;28;20747;-60
2022/09/27 08:36:54;;;;;;;4.77;2.73;;;9.40;99.90;;;;;;5031830;28;20292;-59
2022/09/27 08:39:21;;;;;;;4.23;2.57;;;9.50;99.90;;;;;;5032255;28;20206;-59
2022/09/27 08:41:54;;;;;;;6.73;2.77;;;9.70;99.90;;;;;;5032849;28;20210;-61
2022/09/27 08:44:36;;;;;;;6.47;3.00;;;9.80;99.90;;;;;;5031809;28;20232;-59
2022/09/27 08:47:10;;;;;;;2.90;2.50;;;10.10;99.90;;;;;;5032186;28;20713;-59
2022/09/27 08:49:41;;;;;;;3.87;2.50;;;10.10;99.90;;;;;;5031986;28;20209;-58
2022/09/27 08:52:17;;;;;;;5.07;2.10;;;10.10;99.90;;;;;;5031697;28;20210;-58
2022/09/27 08:54:45;;;;;;;3.80;2.70;;;9.90;99.90;;;;;;5032083;28;20214;-59
2022/09/27 08:57:13;;;;;;;4.37;2.70;;;10.00;99.90;;;;;;5031300;28;20284;-59
2022/09/27 08:59:44;;;;;;;5.67;3.13;;;10.10;99.90;;;;;;5031272;28;20206;-58
2022/09/27 09:02:18;;;;;;;4.07;2.53;;;10.20;99.90;;;;;;5031519;28;20210;-59
2022/09/27 09:04:48;;;;;;;9.00;2.73;;;10.30;99.90;;;;;;5031579;28;20206;-59
2022/09/27 09:07:37;;;;;;;3.23;2.40;;;10.40;99.90;;;;;;5030936;28;20283;-59
2022/09/27 09:12:45;;;;;;;4.73;2.90;;;10.40;99.90;;;;;;5031142;28;20213;-59
2022/09/27 09:13:12;;;;;;;3.23;2.93;;;10.20;99.90;;;;;;5031068;28;20723;-58
2022/09/27 09:15:54;;;;;;;6.33;3.20;;;10.20;99.90;;;;;;5031367;28;20206;-57
2022/09/27 09:18:34;;;;;;;31.13;6.87;;;10.20;99.90;;;;;;5031147;28;20283;-59
2022/09/27 09:21:11;;;;;;;63.40;13.77;;;10.30;99.90;;;;;;5031435;28;20210;-58
2022/09/27 09:23:57;;;;;;;21.20;6.20;;;10.20;99.90;;;;;;5031396;28;20206;-59
2022/09/27 09:26:32;;;;;;;2.60;2.40;;;10.20;99.90;;;;;;5030984;28;20207;-59
2022/09/27 09:29:21;;;;;;;2.87;2.40;;;10.10;99.90;;;;;;5030811;28;20206;-60
2022/09/27 09:31:56;;;;;;;3.07;2.33;;;10.10;99.90;;;;;;5031277;28;20631;-57
2022/09/27 09:34:27;;;;;;;3.53;2.37;;;10.10;99.90;;;;;;5031325;28;20264;-59
2022/09/27 09:37:00;;;;;;;3.13;2.60;;;10.00;99.90;;;;;;5030774;28;20230;-59
2022/09/27 09:39:32;;;;;;;4.10;2.60;;;10.00;99.90;;;;;;5031078;28;20207;-60
2022/09/27 09:42:10;;;;;;;3.07;2.13;;;10.10;99.90;;;;;;5031232;28;20206;-59
2022/09/27 09:44:46;;;;;;;4.17;2.63;;;10.10;99.90;;;;;;5034640;28;20214;-59
2022/09/27 09:47:22;;;;;;;4.47;3.30;;;10.10;99.90;;;;;;5034273;28;20226;-59
2022/09/27 09:49:53;;;;;;;7.43;2.80;;;10.10;99.90;;;;;;5034531;28;20202;-58
2022/09/27 09:52:23;;;;;;;4.03;2.83;;;10.10;99.90;;;;;;5034731;28;20276;-59
2022/09/27 09:54:53;;;;;;;6.00;2.63;;;10.00;99.90;;;;;;5034592;28;20241;-59
2022/09/27 09:57:23;;;;;;;5.50;2.50;;;10.10;99.90;;;;;;5033854;28;20660;-58
2022/09/27 09:59:54;;;;;;;2.40;2.20;;;10.10;99.90;;;;;;5034563;28;20232;-59
2022/09/27 10:02:31;;;;;;;2.93;2.43;;;10.10;99.90;;;;;;5034604;28;20233;-59
2022/09/27 10:04:58;;;;;;;3.57;3.17;;;10.10;99.90;;;;;;5034564;28;20252;-59
2022/09/27 10:07:26;;;;;;;6.63;3.10;;;10.10;99.90;;;;;;5033955;28;20655;-58
2022/09/27 10:09:57;;;;;;;7.10;3.40;;;10.10;99.90;;;;;;5034113;28;20265;-59
2022/09/27 10:12:24;;;;;;;3.80;3.43;;;10.20;99.90;;;;;;5034201;28;20222;-60
2022/09/27 10:14:52;;;;;;;5.50;3.83;;;10.30;99.90;;;;;;5034440;28;20272;-59
2022/09/27 10:17:22;;;;;;;5.33;3.80;;;10.30;99.90;;;;;;5033650;28;20296;-59
2022/09/27 10:19:53;;;;;;;5.90;3.67;;;10.20;99.90;;;;;;5034531;28;20209;-59
2022/09/27 10:22:26;;;;;;;4.53;3.90;;;10.30;99.90;;;;;;5033980;28;20315;-59
2022/09/27 10:24:55;;;;;;;3.80;3.40;;;10.20;99.90;;;;;;5033855;28;20252;-59
2022/09/27 10:27:23;;;;;;;4.70;3.87;;;10.30;99.90;;;;;;5033285;28;20222;-59
2022/09/27 10:29:57;;;;;;;3.60;3.30;;;10.40;99.90;;;;;;5033748;28;20651;-58
2022/09/27 10:32:29;;;;;;;4.73;3.77;;;10.50;99.90;;;;;;5033858;28;20250;-59
2022/09/27 10:35:34;;;;;;;4.20;3.20;;;10.60;99.90;;;;;;5033926;28;20240;-60
2022/09/27 10:38:20;;;;;;;4.43;3.30;;;10.60;99.90;;;;;;5033365;28;20226;-59
2022/09/27 10:40:47;;;;;;;4.70;3.00;;;10.60;99.90;;;;;;5033717;28;20264;-59
2022/09/27 10:43:25;;;;;;;4.87;3.10;;;10.50;99.90;;;;;;5033748;28;20230;-62
2022/09/27 10:46:02;;;;;;;3.20;2.70;;;10.50;99.90;;;;;;5033237;28;20243;-60
2022/09/27 10:48:29;;;;;;;3.63;2.90;;;10.40;99.90;;;;;;5033423;28;20283;-57
2022/09/27 10:50:59;;;;;;;4.33;2.70;;;10.30;99.90;;;;;;5033594;28;20206;-60
2022/09/27 10:53:27;;;;;;;3.47;3.17;;;10.50;99.90;;;;;;5032451;28;20226;-59
2022/09/27 10:55:54;;;;;;;5.30;3.43;;;10.70;99.90;;;;;;5033293;28;20208;-60
2022/09/27 10:58:26;;;;;;;5.10;3.33;;;10.90;99.90;;;;;;5033110;28;20242;-59
2022/09/27 11:01:00;;;;;;;3.97;3.00;;;11.00;99.90;;;;;;5033595;28;20265;-59
2022/09/27 11:03:28;;;;;;;5.80;3.00;;;11.20;99.90;;;;;;5033478;28;20210;-57
2022/09/27 11:05:55;;;;;;;2.87;2.60;;;11.30;99.90;;;;;;5033138;28;20260;-60
2022/09/27 11:08:30;;;;;;;3.13;2.50;;;11.40;99.90;;;;;;5032929;28;20226;-59
2022/09/27 11:11:03;;;;;;;3.50;2.37;;;11.60;99.90;;;;;;5032704;28;20648;-59
2022/09/27 11:13:31;;;;;;;3.97;2.00;;;11.70;99.90;;;;;;5032697;28;20210;-60
2022/09/27 11:16:24;;;;;;;2.73;2.00;;;11.80;99.90;;;;;;5032766;28;20293;-59
2022/09/27 11:19:04;;;;;;;2.57;2.00;;;11.80;99.90;;;;;;5032809;28;20300;-59
2022/09/27 11:21:41;;;;;;;3.13;2.10;;;11.70;99.90;;;;;;5032830;28;20209;-59
2022/09/27 11:24:35;;;;;;;2.40;1.83;;;11.60;99.90;;;;;;5032939;28;20204;-59
2022/09/27 11:27:12;;;;;;;2.70;1.70;;;11.50;99.90;;;;;;5032560;28;20237;-59
2022/09/27 11:29:53;;;;;;;3.27;2.00;;;11.50;99.90;;;;;;5032376;28;20212;-58
2022/09/27 11:32:29;;;;;;;3.03;1.50;;;11.50;99.90;;;;;;5032583;28;20210;-59
2022/09/27 11:35:12;;;;;;;2.23;1.57;;;11.40;99.90;;;;;;5030978;28;20627;-58
2022/09/27 11:37:48;;;;;;;9.47;2.70;;;11.40;99.90;;;;;;5032264;28;20230;-59
2022/09/27 11:40:25;;;;;;;3.03;1.93;;;11.50;99.90;;;;;;5032036;28;20244;-58
2022/09/27 11:43:28;;;;;;;6.13;2.17;;;11.50;99.90;;;;;;5032389;28;20688;-58
2022/09/27 11:46:01;;;;;;;4.70;1.93;;;11.70;99.90;;;;;;5011956;28;20692;-61
2022/09/27 11:48:45;;;;;;;3.00;1.83;;;11.70;99.90;;;;;;5012153;28;20309;-60
2022/09/27 11:51:26;;;;;;;2.90;1.80;;;11.70;99.00;;;;;;5012378;28;20686;-60
2022/09/27 11:54:04;;;;;;;2.73;2.20;;;11.30;93.90;;;;;;5012002;28;20206;-60
2022/09/27 11:56:41;;;;;;;3.93;2.50;;;11.20;99.90;;;;;;5018827;28;20224;-58
2022/09/27 11:59:41;;;;;;;6.03;2.50;;;11.20;99.90;;;;;;5031995;28;20209;-59
2022/09/27 12:02:29;;;;;;;2.80;2.10;;;11.20;99.90;;;;;;5031811;28;20218;-58
2022/09/27 12:05:07;;;;;;;4.20;2.40;;;11.20;99.90;;;;;;5030988;28;20214;-58
2022/09/27 12:07:39;;;;;;;2.37;2.13;;;11.10;99.90;;;;;;5032376;28;20619;-60
2022/09/27 12:10:13;;;;;;;6.13;2.60;;;11.20;99.90;;;;;;5032196;28;20208;-60
2022/09/27 12:12:44;;;;;;;3.83;2.63;;;11.20;99.90;;;;;;5032288;28;20212;-64
2022/09/27 12:15:16;;;;;;;3.50;2.80;;;11.40;99.90;;;;;;5031654;28;20603;-64
2022/09/27 12:17:45;;;;;;;3.73;2.90;;;11.50;99.90;;;;;;5031292;28;20279;-63
2022/09/27 12:20:20;;;;;;;2.80;2.57;;;11.60;99.90;;;;;;5031925;28;20221;-63
2022/09/27 12:22:55;;;;;;;6.17;3.07;;;11.70;99.90;;;;;;5031354;28;20206;-62
2022/09/27 12:25:24;;;;;;;3.57;2.10;;;11.60;86.70;;;;;;5031642;28;20688;-62
2022/09/27 12:27:57;;;;;;;5.23;2.20;;;11.80;94.40;;;;;;5030987;28;20222;-61
2022/09/27 12:30:24;;;;;;;2.97;2.00;;;11.80;87.40;;;;;;5031726;28;20217;-62
2022/09/27 12:33:01;;;;;;;4.23;2.50;;;11.80;71.10;;;;;;5031172;28;20724;-62
2022/09/27 12:35:30;;;;;;;3.60;2.43;;;11.70;80.20;;;;;;5031666;28;20663;-61
2022/09/27 12:38:01;;;;;;;4.60;2.40;;;11.50;59.60;;;;;;5030550;28;20282;-62
2022/09/27 12:40:31;;;;;;;3.13;2.53;;;11.30;61.10;;;;;;5031207;28;20674;-62
2022/09/27 12:43:07;;;;;;;2.83;2.33;;;11.10;90.70;;;;;;5030315;28;20206;-59
2022/09/27 12:45:45;;;;;;;2.63;2.00;;;10.90;99.90;;;;;;5031123;28;20214;-61
2022/09/27 12:48:20;;;;;;;5.10;2.90;;;10.50;99.90;;;;;;5023931;28;20280;-59
2022/09/27 12:50:50;;;;;;;4.97;3.20;;;10.40;99.90;;;;;;5030917;28;20205;-61
2022/09/27 12:53:22;;;;;;;4.20;3.00;;;10.30;99.90;;;;;;5029867;28;20264;-63
2022/09/27 12:56:09;;;;;;;3.03;2.10;;;10.10;99.90;;;;;;5030415;28;20210;-62
2022/09/27 12:59:05;;;;;;;2.27;2.07;;;9.90;99.90;;;;;;5030637;28;20273;-63
2022/09/27 13:02:19;;;;;;;3.73;1.90;;;9.80;99.90;;;;;;5030973;28;20283;-62
2022/09/27 13:05:08;;;;;;;4.63;2.80;;;9.80;99.90;;;;;;5030750;28;20763;-62
2022/09/27 13:07:51;;;;;;;3.33;2.60;;;9.70;99.90;;;;;;5031071;28;20226;-62
2022/09/27 13:10:35;;;;;;;5.13;3.07;;;9.70;99.90;;;;;;5031005;28;20213;-60
2022/09/27 13:13:03;;;;;;;7.57;3.83;;;9.80;99.90;;;;;;5031250;28;20218;-61
2022/09/27 13:15:33;;;;;;;5.20;3.97;;;9.90;99.90;;;;;;5030654;28;20210;-61